createdAt,value
2018-04-22T00:00:42.191Z,15.09
2018-04-22T00:01:42.201Z,14.94
2018-04-22T00:02:42.203Z,15.02
2018-04-22T00:03:42.194Z,15.07
2018-04-22T00:04:42.198Z,15.03
2018-04-22T00:05:42.195Z,15.07
2018-04-22T00:06:43.187Z,14.99
2018-04-22T00:07:42.200Z,14.97
2018-04-22T00:08:42.210Z,14.94
2018-04-22T00:09:42.197Z,14.97
2018-04-22T00:10:42.201Z,14.88
2018-04-22T00:11:42.202Z,14.97
2018-04-22T00:12:42.201Z,14.91
2018-04-22T00:13:42.202Z,14.91
2018-04-22T00:14:42.205Z,14.88
2018-04-22T00:15:42.222Z,14.86
2018-04-22T00:16:42.207Z,14.94
2018-04-22T00:17:42.209Z,14.89
2018-04-22T00:18:42.209Z,14.88
2018-04-22T00:19:42.208Z,14.86
2018-04-22T00:20:42.209Z,14.78
2018-04-22T00:21:43.345Z,14.85
2018-04-22T00:22:42.210Z,14.77
2018-04-22T00:23:42.209Z,14.79
2018-04-22T00:24:42.209Z,14.86
2018-04-22T00:25:42.206Z,14.77
2018-04-22T00:26:42.214Z,14.78
2018-04-22T00:27:42.374Z,14.77
2018-04-22T00:28:42.214Z,14.77
2018-04-22T00:29:42.231Z,14.79
2018-04-22T00:30:42.685Z,14.79
2018-04-22T00:31:42.215Z,14.72
2018-04-22T00:32:42.212Z,14.65
2018-04-22T00:33:42.215Z,14.55
2018-04-22T00:34:42.240Z,14.60
2018-04-22T00:35:42.351Z,14.63
2018-04-22T00:36:42.226Z,14.66
2018-04-22T00:37:43.138Z,14.60
2018-04-22T00:38:43.074Z,14.62
2018-04-22T00:39:42.214Z,14.66
2018-04-22T00:40:42.572Z,14.63
2018-04-22T00:41:42.218Z,14.63
2018-04-22T00:42:42.223Z,14.59
2018-04-22T00:43:42.313Z,14.59
2018-04-22T00:44:42.478Z,14.65
2018-04-22T00:45:42.229Z,14.62
2018-04-22T00:46:42.217Z,14.55
2018-04-22T00:47:42.232Z,14.45
2018-04-22T00:48:42.219Z,14.45
2018-04-22T00:49:42.218Z,14.50
2018-04-22T00:50:42.220Z,14.51
2018-04-22T00:51:42.221Z,14.47
2018-04-22T00:52:42.220Z,14.47
2018-04-22T00:53:42.225Z,14.47
2018-04-22T00:54:42.249Z,14.48
2018-04-22T00:55:42.220Z,14.51
2018-04-22T00:56:44.159Z,14.53
2018-04-22T00:57:42.222Z,14.47
2018-04-22T00:58:42.225Z,14.41
2018-04-22T00:59:42.231Z,14.50
2018-04-22T01:00:42.224Z,14.44
2018-04-22T01:01:42.223Z,14.41
2018-04-22T01:02:42.224Z,14.37
2018-04-22T01:03:42.222Z,14.44
2018-04-22T01:04:42.223Z,14.36
2018-04-22T01:05:42.225Z,14.32
2018-04-22T01:06:42.244Z,14.29
2018-04-22T01:07:42.265Z,14.30
2018-04-22T01:08:42.228Z,14.28
2018-04-22T01:09:42.287Z,14.25
2018-04-22T01:10:42.316Z,14.22
2018-04-22T01:11:42.226Z,14.17
2018-04-22T01:12:42.228Z,14.12
2018-04-22T01:13:42.232Z,14.11
2018-04-22T01:14:42.228Z,14.08
2018-04-22T01:15:42.225Z,14.18
2018-04-22T01:16:42.230Z,14.20
2018-04-22T01:17:42.228Z,14.23
2018-04-22T01:18:42.263Z,14.08
2018-04-22T01:19:42.237Z,14.14
2018-04-22T01:20:42.238Z,14.10
2018-04-22T01:21:42.244Z,14.11
2018-04-22T01:22:42.227Z,14.07
2018-04-22T01:23:42.316Z,14.12
2018-04-22T01:24:42.240Z,14.17
2018-04-22T01:25:42.226Z,14.10
2018-04-22T01:26:42.232Z,14.08
2018-04-22T01:27:42.230Z,14.10
2018-04-22T01:28:42.238Z,14.04
2018-04-22T01:29:42.232Z,13.97
2018-04-22T01:30:42.228Z,14.00
2018-04-22T01:31:42.228Z,13.95
2018-04-22T01:32:42.232Z,13.99
2018-04-22T01:33:42.227Z,13.97
2018-04-22T01:34:42.228Z,13.95
2018-04-22T01:35:44.173Z,13.97
2018-04-22T01:36:42.233Z,13.96
2018-04-22T01:37:42.228Z,13.96
2018-04-22T01:38:42.475Z,13.95
2018-04-22T01:39:44.238Z,13.99
2018-04-22T01:40:42.260Z,13.96
2018-04-22T01:41:42.237Z,13.97
2018-04-22T01:42:42.558Z,13.97
2018-04-22T01:43:42.311Z,13.96
2018-04-22T01:44:42.232Z,13.97
2018-04-22T01:45:42.228Z,13.96
2018-04-22T01:46:42.228Z,13.97
2018-04-22T01:47:42.233Z,13.95
2018-04-22T01:48:42.231Z,13.97
2018-04-22T01:49:42.244Z,13.99
2018-04-22T01:50:42.232Z,13.95
2018-04-22T01:51:42.230Z,13.96
2018-04-22T01:52:42.229Z,13.99
2018-04-22T01:53:42.232Z,13.95
2018-04-22T01:54:42.237Z,13.99
2018-04-22T01:55:42.232Z,13.97
2018-04-22T01:56:42.230Z,13.95
2018-04-22T01:57:42.233Z,14.00
2018-04-22T01:58:42.233Z,13.96
2018-04-22T01:59:42.232Z,13.92
2018-04-22T02:00:42.235Z,13.83
2018-04-22T02:01:42.229Z,13.83
2018-04-22T02:02:42.228Z,13.83
2018-04-22T02:03:42.229Z,13.85
2018-04-22T02:04:42.229Z,13.87
2018-04-22T02:05:42.227Z,13.78
2018-04-22T02:06:42.226Z,13.77
2018-04-22T02:07:42.226Z,13.72
2018-04-22T02:08:42.790Z,13.75
2018-04-22T02:09:42.876Z,13.70
2018-04-22T02:10:42.225Z,13.68
2018-04-22T02:11:42.225Z,13.65
2018-04-22T02:12:42.229Z,13.74
2018-04-22T02:13:42.240Z,13.74
2018-04-22T02:14:44.174Z,13.65
2018-04-22T02:15:42.225Z,13.59
2018-04-22T02:16:42.224Z,13.65
2018-04-22T02:17:42.225Z,13.59
2018-04-22T02:18:45.171Z,13.56
2018-04-22T02:19:42.223Z,13.63
2018-04-22T02:20:42.223Z,13.53
2018-04-22T02:21:42.236Z,13.60
2018-04-22T02:22:42.222Z,13.50
2018-04-22T02:23:42.222Z,13.50
2018-04-22T02:24:42.223Z,13.47
2018-04-22T02:25:42.224Z,13.54
2018-04-22T02:26:42.221Z,13.49
2018-04-22T02:27:42.223Z,13.46
2018-04-22T02:28:42.221Z,13.52
2018-04-22T02:29:42.219Z,13.49
2018-04-22T02:30:42.220Z,13.41
2018-04-22T02:31:42.219Z,13.49
2018-04-22T02:32:42.220Z,13.46
2018-04-22T02:33:42.216Z,13.41
2018-04-22T02:34:42.234Z,13.42
2018-04-22T02:35:42.221Z,13.47
2018-04-22T02:36:42.241Z,13.42
2018-04-22T02:37:42.215Z,13.33
2018-04-22T02:38:42.216Z,13.30
2018-04-22T02:39:42.227Z,13.41
2018-04-22T02:40:42.218Z,13.35
2018-04-22T02:41:42.215Z,13.41
2018-04-22T02:42:42.211Z,13.41
2018-04-22T02:43:42.216Z,13.41
2018-04-22T02:44:42.215Z,13.39
2018-04-22T02:45:42.211Z,13.41
2018-04-22T02:46:42.210Z,13.23
2018-04-22T02:47:42.212Z,13.25
2018-04-22T02:48:42.208Z,13.25
2018-04-22T02:49:42.207Z,13.22
2018-04-22T02:50:42.207Z,13.20
2018-04-22T02:51:42.207Z,13.20
2018-04-22T02:52:42.207Z,13.18
2018-04-22T02:53:42.204Z,13.08
2018-04-22T02:54:42.209Z,13.20
2018-04-22T02:55:42.205Z,13.13
2018-04-22T02:56:42.205Z,13.11
2018-04-22T02:57:42.201Z,13.15
2018-04-22T02:58:42.201Z,13.20
2018-04-22T02:59:42.202Z,13.04
2018-04-22T03:00:42.201Z,13.04
2018-04-22T03:01:42.198Z,13.13
2018-04-22T03:02:42.198Z,13.12
2018-04-22T03:03:42.198Z,13.13
2018-04-22T03:04:42.198Z,13.05
2018-04-22T03:05:42.196Z,13.18
2018-04-22T03:06:42.195Z,12.97
2018-04-22T03:07:42.195Z,13.11
2018-04-22T03:08:42.197Z,12.98
2018-04-22T03:09:42.194Z,13.01
2018-04-22T03:10:42.196Z,13.04
2018-04-22T03:11:42.191Z,13.01
2018-04-22T03:12:42.190Z,13.01
2018-04-22T03:13:42.229Z,13.05
2018-04-22T03:14:42.191Z,13.01
2018-04-22T03:15:42.189Z,12.94
2018-04-22T03:16:42.191Z,13.00
2018-04-22T03:17:42.197Z,12.95
2018-04-22T03:18:42.188Z,12.95
2018-04-22T03:19:42.184Z,12.93
2018-04-22T03:20:42.196Z,12.95
2018-04-22T03:21:42.184Z,12.87
2018-04-22T03:22:42.188Z,12.95
2018-04-22T03:23:42.181Z,12.94
2018-04-22T03:24:42.181Z,12.95
2018-04-22T03:25:42.181Z,12.90
2018-04-22T03:26:42.178Z,12.95
2018-04-22T03:27:42.178Z,12.98
2018-04-22T03:28:42.178Z,12.95
2018-04-22T03:29:42.177Z,12.93
2018-04-22T03:30:42.174Z,12.94
2018-04-22T03:31:42.181Z,12.93
2018-04-22T03:32:42.173Z,12.93
2018-04-22T03:33:42.171Z,12.95
2018-04-22T03:34:42.173Z,12.98
2018-04-22T03:35:42.177Z,12.95
2018-04-22T03:36:42.170Z,12.93
2018-04-22T03:37:42.168Z,12.93
2018-04-22T03:38:42.173Z,12.97
2018-04-22T03:39:42.166Z,12.90
2018-04-22T03:40:42.167Z,12.90
2018-04-22T03:41:42.167Z,12.90
2018-04-22T03:42:42.178Z,12.87
2018-04-22T03:43:42.165Z,12.90
2018-04-22T03:44:42.163Z,12.87
2018-04-22T03:45:42.162Z,12.86
2018-04-22T03:46:42.163Z,12.83
2018-04-22T03:47:42.160Z,12.80
2018-04-22T03:48:42.162Z,12.75
2018-04-22T03:49:42.158Z,12.75
2018-04-22T03:50:42.159Z,12.72
2018-04-22T03:51:42.156Z,12.70
2018-04-22T03:52:42.156Z,12.67
2018-04-22T03:53:42.156Z,12.70
2018-04-22T03:54:42.153Z,12.64
2018-04-22T03:55:42.157Z,12.57
2018-04-22T03:56:42.151Z,12.62
2018-04-22T03:57:42.150Z,12.65
2018-04-22T03:58:42.157Z,12.61
2018-04-22T03:59:42.148Z,12.55
2018-04-22T04:00:42.153Z,12.58
2018-04-22T04:01:42.147Z,12.57
2018-04-22T04:02:42.147Z,12.45
2018-04-22T04:03:42.144Z,12.53
2018-04-22T04:04:42.144Z,12.43
2018-04-22T04:05:42.140Z,12.50
2018-04-22T04:06:42.140Z,12.46
2018-04-22T04:07:42.140Z,12.53
2018-04-22T04:08:42.137Z,12.46
2018-04-22T04:09:42.165Z,12.50
2018-04-22T04:10:42.134Z,12.45
2018-04-22T04:11:42.133Z,12.49
2018-04-22T04:12:42.567Z,12.53
2018-04-22T04:13:42.131Z,12.49
2018-04-22T04:14:42.129Z,12.47
2018-04-22T04:15:42.129Z,12.47
2018-04-22T04:16:42.130Z,12.47
2018-04-22T04:17:42.131Z,12.50
2018-04-22T04:18:42.137Z,12.47
2018-04-22T04:19:42.123Z,12.46
2018-04-22T04:20:42.122Z,12.47
2018-04-22T04:21:42.125Z,12.45
2018-04-22T04:22:42.119Z,12.53
2018-04-22T04:23:42.120Z,12.50
2018-04-22T04:24:42.117Z,12.45
2018-04-22T04:25:42.117Z,12.46
2018-04-22T04:26:42.115Z,12.45
2018-04-22T04:27:42.113Z,12.54
2018-04-22T04:28:42.114Z,12.47
2018-04-22T04:29:42.111Z,12.49
2018-04-22T04:30:42.314Z,12.50
2018-04-22T04:31:42.110Z,12.49
2018-04-22T04:32:42.629Z,12.47
2018-04-22T04:33:43.285Z,12.53
2018-04-22T04:34:42.105Z,12.61
2018-04-22T04:35:42.106Z,12.60
2018-04-22T04:36:42.105Z,12.64
2018-04-22T04:37:42.100Z,12.62
2018-04-22T04:38:42.099Z,12.64
2018-04-22T04:39:42.102Z,12.67
2018-04-22T04:40:42.104Z,12.58
2018-04-22T04:41:42.157Z,12.64
2018-04-22T04:42:42.094Z,12.64
2018-04-22T04:43:43.188Z,12.72
2018-04-22T04:44:42.671Z,12.73
2018-04-22T04:45:42.184Z,12.78
2018-04-22T04:46:43.145Z,12.79
2018-04-22T04:47:42.432Z,12.91
2018-04-22T04:48:42.097Z,12.93
2018-04-22T04:49:42.086Z,12.94
2018-04-22T04:50:42.111Z,13.01
2018-04-22T04:51:42.084Z,13.00
2018-04-22T04:52:42.082Z,13.04
2018-04-22T04:53:42.081Z,13.05
2018-04-22T04:54:42.084Z,13.04
2018-04-22T04:55:42.083Z,13.01
2018-04-22T04:56:42.083Z,13.13
2018-04-22T04:57:42.111Z,13.04
2018-04-22T04:58:42.144Z,13.03
2018-04-22T04:59:42.083Z,13.11
2018-04-22T05:00:42.088Z,13.20
2018-04-22T05:01:42.122Z,13.08
2018-04-22T05:02:42.118Z,13.12
2018-04-22T05:03:42.071Z,13.20
2018-04-22T05:04:42.091Z,13.16
2018-04-22T05:05:42.069Z,13.12
2018-04-22T05:06:42.089Z,13.04
2018-04-22T05:07:42.069Z,13.11
2018-04-22T05:08:42.113Z,13.12
2018-04-22T05:09:42.067Z,13.15
2018-04-22T05:10:42.073Z,13.19
2018-04-22T05:11:42.067Z,13.15
2018-04-22T05:12:42.063Z,13.25
2018-04-22T05:13:42.061Z,13.16
2018-04-22T05:14:42.065Z,13.09
2018-04-22T05:15:42.060Z,13.19
2018-04-22T05:16:42.059Z,13.12
2018-04-22T05:17:42.057Z,13.18
2018-04-22T05:18:42.110Z,13.16
2018-04-22T05:19:42.064Z,13.28
2018-04-22T05:20:42.057Z,13.16
2018-04-22T05:21:42.055Z,13.19
2018-04-22T05:22:42.055Z,13.20
2018-04-22T05:23:42.054Z,13.27
2018-04-22T05:24:42.053Z,13.20
2018-04-22T05:25:42.052Z,13.22
2018-04-22T05:26:42.053Z,13.16
2018-04-22T05:27:42.051Z,13.13
2018-04-22T05:28:42.052Z,13.23
2018-04-22T05:29:42.049Z,13.13
2018-04-22T05:30:42.050Z,13.22
2018-04-22T05:31:42.049Z,13.23
2018-04-22T05:32:42.050Z,13.18
2018-04-22T05:33:42.049Z,13.19
2018-04-22T05:34:42.049Z,13.19
2018-04-22T05:35:42.046Z,13.19
2018-04-22T05:36:42.045Z,13.16
2018-04-22T05:37:42.044Z,13.22
2018-04-22T05:38:42.044Z,13.08
2018-04-22T05:39:42.044Z,13.27
2018-04-22T05:40:42.049Z,13.18
2018-04-22T05:41:42.068Z,13.08
2018-04-22T05:42:42.092Z,13.12
2018-04-22T05:43:42.038Z,13.16
2018-04-22T05:44:42.043Z,13.18
2018-04-22T05:45:42.037Z,13.20
2018-04-22T05:46:42.036Z,13.12
2018-04-22T05:47:42.036Z,13.23
2018-04-22T05:48:42.057Z,13.25
2018-04-22T05:49:42.034Z,13.20
2018-04-22T05:50:42.033Z,13.25
2018-04-22T05:51:42.034Z,13.23
2018-04-22T05:52:42.033Z,13.20
2018-04-22T05:53:42.033Z,13.35
2018-04-22T05:54:42.033Z,13.27
2018-04-22T05:55:42.031Z,13.38
2018-04-22T05:56:42.029Z,13.35
2018-04-22T05:57:42.033Z,13.33
2018-04-22T05:58:42.030Z,13.31
2018-04-22T05:59:42.032Z,13.33
2018-04-22T06:00:42.030Z,13.42
2018-04-22T06:01:42.035Z,13.42
2018-04-22T06:02:42.035Z,13.42
2018-04-22T06:03:42.027Z,13.42
2018-04-22T06:04:42.025Z,13.37
2018-04-22T06:05:42.025Z,13.49
2018-04-22T06:06:42.023Z,13.52
2018-04-22T06:07:42.025Z,13.52
2018-04-22T06:08:42.023Z,13.59
2018-04-22T06:09:42.023Z,13.53
2018-04-22T06:10:42.022Z,13.57
2018-04-22T06:11:42.021Z,13.49
2018-04-22T06:12:42.022Z,13.59
2018-04-22T06:13:42.020Z,13.54
2018-04-22T06:14:42.020Z,13.59
2018-04-22T06:15:42.189Z,13.56
2018-04-22T06:16:42.021Z,13.56
2018-04-22T06:17:42.017Z,13.63
2018-04-22T06:18:42.017Z,13.54
2018-04-22T06:19:42.017Z,13.50
2018-04-22T06:20:42.020Z,13.57
2018-04-22T06:21:42.019Z,13.52
2018-04-22T06:22:42.018Z,13.56
2018-04-22T06:23:42.016Z,13.53
2018-04-22T06:24:42.016Z,13.57
2018-04-22T06:25:42.017Z,13.57
2018-04-22T06:26:42.016Z,13.63
2018-04-22T06:27:42.014Z,13.68
2018-04-22T06:28:42.017Z,13.70
2018-04-22T06:29:42.012Z,13.85
2018-04-22T06:30:42.013Z,13.79
2018-04-22T06:31:42.031Z,13.83
2018-04-22T06:32:42.012Z,13.95
2018-04-22T06:33:42.010Z,13.92
2018-04-22T06:34:42.152Z,13.97
2018-04-22T06:35:42.010Z,13.93
2018-04-22T06:36:42.013Z,13.92
2018-04-22T06:37:42.009Z,13.93
2018-04-22T06:38:42.009Z,13.95
2018-04-22T06:39:42.013Z,13.92
2018-04-22T06:40:42.012Z,13.95
2018-04-22T06:41:42.007Z,13.92
2018-04-22T06:42:42.012Z,13.90
2018-04-22T06:43:42.008Z,14.00
2018-04-22T06:44:42.032Z,14.05
2018-04-22T06:45:42.009Z,14.14
2018-04-22T06:46:42.592Z,14.17
2018-04-22T06:47:42.010Z,14.20
2018-04-22T06:48:42.008Z,14.29
2018-04-22T06:49:42.015Z,14.32
2018-04-22T06:50:42.008Z,14.43
2018-04-22T06:51:42.012Z,14.48
2018-04-22T06:52:42.008Z,14.50
2018-04-22T06:53:42.007Z,14.50
2018-04-22T06:54:42.007Z,14.47
2018-04-22T06:55:42.492Z,14.63
2018-04-22T06:56:42.008Z,14.58
2018-04-22T06:57:42.012Z,14.51
2018-04-22T06:58:42.039Z,14.58
2018-04-22T06:59:42.009Z,14.66
2018-04-22T07:00:42.008Z,14.69
2018-04-22T07:01:42.010Z,14.59
2018-04-22T07:02:42.008Z,14.60
2018-04-22T07:03:42.011Z,14.66
2018-04-22T07:04:42.013Z,14.65
2018-04-22T07:05:42.009Z,14.68
2018-04-22T07:06:42.012Z,14.60
2018-04-22T07:07:42.012Z,14.60
2018-04-22T07:08:42.013Z,14.53
2018-04-22T07:09:42.011Z,14.55
2018-04-22T07:10:42.015Z,14.59
2018-04-22T07:11:42.013Z,14.59
2018-04-22T07:12:42.023Z,14.66
2018-04-22T07:13:42.016Z,14.65
2018-04-22T07:14:42.013Z,14.58
2018-04-22T07:15:42.016Z,14.65
2018-04-22T07:16:42.038Z,14.60
2018-04-22T07:17:42.013Z,14.65
2018-04-22T07:18:42.015Z,14.62
2018-04-22T07:19:42.015Z,14.62
2018-04-22T07:20:42.017Z,14.58
2018-04-22T07:21:42.016Z,14.65
2018-04-22T07:22:42.091Z,14.65
2018-04-22T07:23:42.016Z,14.65
2018-04-22T07:24:42.020Z,14.62
2018-04-22T07:25:42.017Z,14.63
2018-04-22T07:26:42.017Z,14.55
2018-04-22T07:27:42.017Z,14.68
2018-04-22T07:28:42.018Z,14.68
2018-04-22T07:29:42.019Z,14.60
2018-04-22T07:30:42.018Z,14.62
2018-04-22T07:31:42.018Z,14.70
2018-04-22T07:32:42.021Z,14.72
2018-04-22T07:33:42.018Z,14.86
2018-04-22T07:34:42.019Z,14.85
2018-04-22T07:35:42.019Z,14.92
2018-04-22T07:36:42.020Z,14.89
2018-04-22T07:37:42.022Z,14.91
2018-04-22T07:38:42.022Z,15.04
2018-04-22T07:39:42.021Z,15.04
2018-04-22T07:40:42.053Z,15.07
2018-04-22T07:41:42.026Z,15.10
2018-04-22T07:42:42.022Z,15.14
2018-04-22T07:43:42.025Z,15.24
2018-04-22T07:44:42.025Z,15.28
2018-04-22T07:45:42.025Z,15.33
2018-04-22T07:46:42.023Z,15.33
2018-04-22T07:47:42.024Z,15.29
2018-04-22T07:48:42.026Z,15.37
2018-04-22T07:49:42.025Z,15.42
2018-04-22T07:50:42.027Z,15.42
2018-04-22T07:51:42.031Z,15.52
2018-04-22T07:52:42.029Z,15.62
2018-04-22T07:53:42.028Z,15.58
2018-04-22T07:54:42.037Z,15.62
2018-04-22T07:55:42.031Z,15.73
2018-04-22T07:56:42.032Z,15.70
2018-04-22T07:57:42.031Z,15.82
2018-04-22T07:58:42.032Z,15.77
2018-04-22T07:59:42.033Z,15.84
2018-04-22T08:00:42.035Z,15.82
2018-04-22T08:01:42.035Z,15.92
2018-04-22T08:02:42.039Z,15.92
2018-04-22T08:03:42.037Z,16.05
2018-04-22T08:04:42.038Z,16.01
2018-04-22T08:05:42.039Z,16.15
2018-04-22T08:06:42.091Z,16.15
2018-04-22T08:07:42.041Z,16.26
2018-04-22T08:08:42.042Z,16.20
2018-04-22T08:09:42.042Z,16.29
2018-04-22T08:10:42.044Z,16.31
2018-04-22T08:11:42.049Z,16.24
2018-04-22T08:12:42.048Z,16.41
2018-04-22T08:13:42.047Z,16.49
2018-04-22T08:14:42.049Z,16.46
2018-04-22T08:15:42.053Z,16.54
2018-04-22T08:16:42.056Z,16.64
2018-04-22T08:17:42.059Z,16.64
2018-04-22T08:18:42.055Z,16.68
2018-04-22T08:19:42.056Z,16.68
2018-04-22T08:20:42.058Z,16.76
2018-04-22T08:21:42.061Z,16.83
2018-04-22T08:22:42.060Z,16.91
2018-04-22T08:23:42.072Z,16.93
2018-04-22T08:24:42.067Z,17.05
2018-04-22T08:25:42.068Z,17.02
2018-04-22T08:26:42.067Z,16.99
2018-04-22T08:27:42.069Z,17.06
2018-04-22T08:28:42.075Z,17.24
2018-04-22T08:29:42.072Z,17.20
2018-04-22T08:30:42.075Z,17.31
2018-04-22T08:31:42.077Z,17.33
2018-04-22T08:32:42.077Z,17.42
2018-04-22T08:33:42.079Z,17.34
2018-04-22T08:34:42.081Z,17.63
2018-04-22T08:35:42.085Z,17.54
2018-04-22T08:36:42.085Z,17.52
2018-04-22T08:37:42.087Z,17.64
2018-04-22T08:38:42.092Z,17.59
2018-04-22T08:39:42.092Z,17.68
2018-04-22T08:40:42.093Z,17.76
2018-04-22T08:41:42.095Z,17.79
2018-04-22T08:42:42.099Z,17.82
2018-04-22T08:43:42.101Z,17.89
2018-04-22T08:44:42.118Z,17.98
2018-04-22T08:45:42.277Z,18.03
2018-04-22T08:46:42.107Z,18.10
2018-04-22T08:47:42.109Z,18.11
2018-04-22T08:48:42.116Z,18.13
2018-04-22T08:49:42.375Z,18.22
2018-04-22T08:50:42.154Z,18.26
2018-04-22T08:51:42.119Z,18.28
2018-04-22T08:52:42.122Z,18.38
2018-04-22T08:53:42.122Z,18.34
2018-04-22T08:54:42.198Z,18.37
2018-04-22T08:55:42.130Z,18.55
2018-04-22T08:56:42.164Z,18.65
2018-04-22T08:57:42.133Z,18.68
2018-04-22T08:58:42.135Z,18.77
2018-04-22T08:59:42.140Z,18.88
2018-04-22T09:00:42.142Z,19.14
2018-04-22T09:01:42.144Z,19.34
2018-04-22T09:02:42.146Z,19.63
2018-04-22T09:03:42.150Z,19.84
2018-04-22T09:04:42.153Z,19.85
2018-04-22T09:05:42.161Z,19.99
2018-04-22T09:06:42.159Z,20.03
2018-04-22T09:07:42.165Z,19.99
2018-04-22T09:08:43.441Z,20.07
2018-04-22T09:09:42.170Z,20.03
2018-04-22T09:10:42.177Z,20.13
2018-04-22T09:11:44.831Z,20.10
2018-04-22T09:12:42.185Z,20.14
2018-04-22T09:13:42.189Z,20.09
2018-04-22T09:14:42.422Z,20.11
2018-04-22T09:15:42.194Z,20.16
2018-04-22T09:16:42.231Z,20.21
2018-04-22T09:17:42.197Z,20.22
2018-04-22T09:18:42.201Z,20.32
2018-04-22T09:19:42.205Z,20.41
2018-04-22T09:20:42.783Z,20.37
2018-04-22T09:21:42.214Z,20.31
2018-04-22T09:22:42.217Z,20.47
2018-04-22T09:23:42.222Z,20.47
2018-04-22T09:24:42.240Z,20.52
2018-04-22T09:25:42.228Z,20.58
2018-04-22T09:26:42.231Z,20.60
2018-04-22T09:27:42.237Z,20.65
2018-04-22T09:28:42.240Z,20.74
2018-04-22T09:29:42.243Z,20.77
2018-04-22T09:30:42.251Z,20.84
2018-04-22T09:31:42.258Z,20.93
2018-04-22T09:32:42.256Z,20.99
2018-04-22T09:33:42.289Z,21.03
2018-04-22T09:34:42.267Z,20.97
2018-04-22T09:35:42.269Z,21.07
2018-04-22T09:36:42.276Z,21.07
2018-04-22T09:37:42.822Z,21.17
2018-04-22T09:38:42.281Z,21.32
2018-04-22T09:39:42.293Z,21.36
2018-04-22T09:40:42.289Z,21.52
2018-04-22T09:41:42.296Z,21.62
2018-04-22T09:42:42.313Z,21.75
2018-04-22T09:43:42.312Z,21.79
2018-04-22T09:44:42.308Z,21.92
2018-04-22T09:45:42.313Z,22.00
2018-04-22T09:46:42.314Z,22.15
2018-04-22T09:47:42.319Z,22.11
2018-04-22T09:48:42.322Z,22.15
2018-04-22T09:49:42.329Z,22.18
2018-04-22T09:50:42.332Z,22.25
2018-04-22T09:51:43.185Z,22.20
2018-04-22T09:52:42.341Z,22.23
2018-04-22T09:53:42.349Z,22.20
2018-04-22T09:54:42.352Z,22.32
2018-04-22T09:55:42.382Z,22.26
2018-04-22T09:56:42.362Z,22.43
2018-04-22T09:57:42.364Z,22.53
2018-04-22T09:58:42.371Z,22.55
2018-04-22T09:59:42.376Z,22.68
2018-04-22T10:00:42.384Z,22.75
2018-04-22T10:01:42.385Z,22.78
2018-04-22T10:02:42.389Z,22.85
2018-04-22T10:03:42.394Z,22.87
2018-04-22T10:04:42.400Z,22.93
2018-04-22T10:05:42.405Z,22.90
2018-04-22T10:06:42.408Z,22.96
2018-04-22T10:07:42.417Z,23.08
2018-04-22T10:08:42.422Z,23.13
2018-04-22T10:09:42.430Z,23.10
2018-04-22T10:10:42.432Z,23.24
2018-04-22T10:11:42.435Z,23.25
2018-04-22T10:12:42.442Z,23.28
2018-04-22T10:13:42.448Z,23.34
2018-04-22T10:14:42.450Z,23.36
2018-04-22T10:15:42.490Z,23.41
2018-04-22T10:16:42.463Z,23.41
2018-04-22T10:17:42.477Z,23.46
2018-04-22T10:18:42.472Z,23.48
2018-04-22T10:19:42.483Z,23.61
2018-04-22T10:20:42.490Z,23.46
2018-04-22T10:21:42.486Z,23.55
2018-04-22T10:22:42.491Z,23.62
2018-04-22T10:23:42.518Z,23.63
2018-04-22T10:24:42.505Z,23.63
2018-04-22T10:25:42.513Z,23.73
2018-04-22T10:26:42.516Z,23.74
2018-04-22T10:27:42.564Z,23.78
2018-04-22T10:28:42.570Z,23.71
2018-04-22T10:29:42.531Z,23.87
2018-04-22T10:30:42.539Z,23.83
2018-04-22T10:31:42.548Z,23.83
2018-04-22T10:32:42.572Z,23.88
2018-04-22T10:33:42.559Z,23.86
2018-04-22T10:34:42.613Z,23.87
2018-04-22T10:35:42.566Z,23.99
2018-04-22T10:36:42.574Z,24.03
2018-04-22T10:37:42.725Z,24.14
2018-04-22T10:38:43.022Z,24.26
2018-04-22T10:39:42.613Z,24.35
2018-04-22T10:40:42.595Z,24.35
2018-04-22T10:41:42.617Z,24.42
2018-04-22T10:42:42.607Z,24.48
2018-04-22T10:43:42.612Z,24.45
2018-04-22T10:44:42.619Z,24.57
2018-04-22T10:45:42.625Z,24.53
2018-04-22T10:46:42.673Z,24.48
2018-04-22T10:47:42.634Z,24.51
2018-04-22T10:48:42.642Z,24.50
2018-04-22T10:49:42.647Z,24.47
2018-04-22T10:50:42.657Z,24.53
2018-04-22T10:51:42.665Z,24.45
2018-04-22T10:52:42.668Z,24.54
2018-04-22T10:53:42.674Z,24.57
2018-04-22T10:54:42.681Z,24.58
2018-04-22T10:55:42.687Z,24.61
2018-04-22T10:56:42.693Z,24.66
2018-04-22T10:57:42.707Z,24.61
2018-04-22T10:58:42.712Z,24.60
2018-04-22T10:59:42.714Z,24.61
2018-04-22T11:00:42.717Z,24.66
2018-04-22T11:01:42.723Z,24.60
2018-04-22T11:02:42.730Z,24.78
2018-04-22T11:03:42.738Z,24.69
2018-04-22T11:04:42.743Z,24.78
2018-04-22T11:05:42.748Z,24.84
2018-04-22T11:06:42.756Z,24.84
2018-04-22T11:07:42.761Z,24.78
2018-04-22T11:08:42.771Z,24.80
2018-04-22T11:09:42.773Z,24.84
2018-04-22T11:10:42.778Z,24.84
2018-04-22T11:11:42.796Z,24.84
2018-04-22T11:12:42.790Z,24.68
2018-04-22T11:13:42.799Z,24.80
2018-04-22T11:14:42.822Z,24.89
2018-04-22T11:15:42.809Z,24.92
2018-04-22T11:16:42.817Z,24.92
2018-04-22T11:17:42.822Z,24.91
2018-04-22T11:18:42.827Z,24.93
2018-04-22T11:19:42.833Z,25.01
2018-04-22T11:20:42.842Z,25.03
2018-04-22T11:21:42.846Z,25.01
2018-04-22T11:22:42.852Z,24.99
2018-04-22T11:23:42.860Z,25.06
2018-04-22T11:24:42.867Z,25.04
2018-04-22T11:25:42.875Z,25.04
2018-04-22T11:26:42.879Z,25.10
2018-04-22T11:27:42.885Z,25.06
2018-04-22T11:28:42.899Z,25.10
2018-04-22T11:29:42.895Z,25.10
2018-04-22T11:30:42.908Z,25.17
2018-04-22T11:31:42.913Z,25.11
2018-04-22T11:32:42.919Z,25.13
2018-04-22T11:33:42.929Z,25.06
2018-04-22T11:34:42.930Z,25.13
2018-04-22T11:35:42.937Z,25.07
2018-04-22T11:36:42.941Z,25.06
2018-04-22T11:37:42.951Z,25.03
2018-04-22T11:38:42.956Z,25.07
2018-04-22T11:39:42.964Z,25.10
2018-04-22T11:40:42.975Z,25.08
2018-04-22T11:41:42.974Z,25.14
2018-04-22T11:42:42.981Z,25.16
2018-04-22T11:43:42.986Z,25.17
2018-04-22T11:44:42.994Z,25.18
2018-04-22T11:45:43.003Z,25.26
2018-04-22T11:46:43.008Z,25.31
2018-04-22T11:47:43.026Z,25.40
2018-04-22T11:48:43.020Z,25.48
2018-04-22T11:49:43.026Z,25.50
2018-04-22T11:50:43.052Z,25.55
2018-04-22T11:51:43.040Z,25.46
2018-04-22T11:52:43.046Z,25.68
2018-04-22T11:53:43.054Z,25.77
2018-04-22T11:54:43.057Z,25.66
2018-04-22T11:55:43.093Z,25.77
2018-04-22T11:56:43.075Z,25.75
2018-04-22T11:57:43.078Z,25.72
2018-04-22T11:58:43.085Z,25.69
2018-04-22T11:59:43.091Z,25.60
2018-04-22T12:00:43.105Z,25.69
2018-04-22T12:01:43.155Z,25.60
2018-04-22T12:02:43.114Z,25.75
2018-04-22T12:03:43.117Z,25.72
2018-04-22T12:04:43.126Z,25.78
2018-04-22T12:05:43.132Z,25.81
2018-04-22T12:06:43.142Z,25.77
2018-04-22T12:07:43.145Z,25.81
2018-04-22T12:08:43.153Z,25.78
2018-04-22T12:09:43.159Z,25.83
2018-04-22T12:10:43.164Z,25.84
2018-04-22T12:11:43.174Z,25.83
2018-04-22T12:12:43.180Z,25.84
2018-04-22T12:13:43.189Z,25.85
2018-04-22T12:14:43.214Z,25.84
2018-04-22T12:15:43.201Z,25.96
2018-04-22T12:16:43.214Z,26.07
2018-04-22T12:17:43.215Z,26.07
2018-04-22T12:18:43.221Z,26.06
2018-04-22T12:19:43.231Z,26.06
2018-04-22T12:20:43.389Z,26.19
2018-04-22T12:21:43.285Z,26.18
2018-04-22T12:22:43.248Z,26.16
2018-04-22T12:23:43.256Z,26.18
2018-04-22T12:24:43.273Z,26.18
2018-04-22T12:25:43.371Z,26.21
2018-04-22T12:26:43.281Z,26.21
2018-04-22T12:27:43.292Z,26.21
2018-04-22T12:28:43.295Z,26.18
2018-04-22T12:29:43.302Z,26.06
2018-04-22T12:30:43.313Z,26.00
2018-04-22T12:31:43.317Z,26.02
2018-04-22T12:32:43.322Z,26.15
2018-04-22T12:33:43.333Z,26.05
2018-04-22T12:34:43.343Z,26.09
2018-04-22T12:35:43.348Z,26.10
2018-04-22T12:36:43.357Z,26.18
2018-04-22T12:37:43.356Z,26.18
2018-04-22T12:38:43.369Z,26.19
2018-04-22T12:39:43.370Z,26.06
2018-04-22T12:40:43.377Z,26.00
2018-04-22T12:41:43.384Z,26.00
2018-04-22T12:42:43.389Z,26.05
2018-04-22T12:43:43.396Z,26.06
2018-04-22T12:44:43.405Z,26.06
2018-04-22T12:45:43.411Z,26.13
2018-04-22T12:46:43.427Z,26.06
2018-04-22T12:47:43.437Z,26.06
2018-04-22T12:48:43.433Z,26.09
2018-04-22T12:49:43.438Z,25.98
2018-04-22T12:50:43.443Z,25.99
2018-04-22T12:51:43.450Z,25.98
2018-04-22T12:52:43.457Z,25.91